Home > Products > Valid Products > TAF

000
FTUS45 KREV 250525
TAFRNO
TAF
KRNO 250525Z 2506/2606 35006KT P6SM SCT070 BKN110
     FM251000 VRB03KT P6SM SCT080 BKN150
     FM251300 00000KT P6SM VCFG FEW010 SCT150
     FM251600 25004KT P6SM SCT150
     FM252100 30010G18KT P6SM VCSH BKN060 BKN120
     FM260200 32011G19KT P6SM SCT120=



000
FTUS45 KREV 250525
TAFRNO
TAF
KRNO 250525Z 2506/2606 35006KT P6SM SCT070 BKN110
     FM251000 VRB03KT P6SM SCT080 BKN150
     FM251300 00000KT P6SM VCFG FEW010 SCT150
     FM251600 25004KT P6SM SCT150
     FM252100 30010G18KT P6SM VCSH BKN060 BKN120
     FM260200 32011G19KT P6SM SCT120=



000
FTUS45 KREV 250525
TAFRNO
TAF
KRNO 250525Z 2506/2606 35006KT P6SM SCT070 BKN110
     FM251000 VRB03KT P6SM SCT080 BKN150
     FM251300 00000KT P6SM VCFG FEW010 SCT150
     FM251600 25004KT P6SM SCT150
     FM252100 30010G18KT P6SM VCSH BKN060 BKN120
     FM260200 32011G19KT P6SM SCT120=



000
FTUS45 KREV 250525
TAFRNO
TAF
KRNO 250525Z 2506/2606 35006KT P6SM SCT070 BKN110
     FM251000 VRB03KT P6SM SCT080 BKN150
     FM251300 00000KT P6SM VCFG FEW010 SCT150
     FM251600 25004KT P6SM SCT150
     FM252100 30010G18KT P6SM VCSH BKN060 BKN120
     FM260200 32011G19KT P6SM SCT120=



000
FTUS45 KREV 250018 RRA
TAFRNO
TAF
KRNO 250018Z 2500/2524 35006KT P6SM SCT050 BKN080
     FM250400 VRB04KT P6SM SCT045 SCT080 SCT120
     FM251200 00000KT P6SM VCFG SCT010
     FM251600 VRB02KT P6SM FEW120
     FM252000 30010G18KT P6SM VCSH BKN060 BKN100=



000
FTUS45 KREV 250018 RRA
TAFRNO
TAF
KRNO 250018Z 2500/2524 35006KT P6SM SCT050 BKN080
     FM250400 VRB04KT P6SM SCT045 SCT080 SCT120
     FM251200 00000KT P6SM VCFG SCT010
     FM251600 VRB02KT P6SM FEW120
     FM252000 30010G18KT P6SM VCSH BKN060 BKN100=



000
FTUS45 KREV 250018 RRA
TAFRNO
TAF
KRNO 250018Z 2500/2524 35006KT P6SM SCT050 BKN080
     FM250400 VRB04KT P6SM SCT045 SCT080 SCT120
     FM251200 00000KT P6SM VCFG SCT010
     FM251600 VRB02KT P6SM FEW120
     FM252000 30010G18KT P6SM VCSH BKN060 BKN100=



000
FTUS45 KREV 250018 RRA
TAFRNO
TAF
KRNO 250018Z 2500/2524 35006KT P6SM SCT050 BKN080
     FM250400 VRB04KT P6SM SCT045 SCT080 SCT120
     FM251200 00000KT P6SM VCFG SCT010
     FM251600 VRB02KT P6SM FEW120
     FM252000 30010G18KT P6SM VCSH BKN060 BKN100=



000
FTUS45 KREV 241720
TAFRNO
TAF
KRNO 241720Z 2418/2518 34008KT P6SM SCT050 BKN090 BKN120
     FM242200 33009G16KT P6SM SCT050 BKN080
     FM250400 VRB04KT P6SM SCT045 SCT080 SCT120=



000
FTUS45 KREV 241720
TAFRNO
TAF
KRNO 241720Z 2418/2518 34008KT P6SM SCT050 BKN090 BKN120
     FM242200 33009G16KT P6SM SCT050 BKN080
     FM250400 VRB04KT P6SM SCT045 SCT080 SCT120=



000
FTUS45 KREV 241132
TAFRNO
TAF
KRNO 241132Z 2412/2512 VRB03KT P6SM SCT050 BKN080
     FM241900 34008KT P6SM SCT050 BKN090 BKN120
     FM242200 33009G16KT P6SM SCT050 BKN080
     FM250400 VRB04KT P6SM SCT045 SCT080 SCT120=



000
FTUS45 KREV 241132
TAFRNO
TAF
KRNO 241132Z 2412/2512 VRB03KT P6SM SCT050 BKN080
     FM241900 34008KT P6SM SCT050 BKN090 BKN120
     FM242200 33009G16KT P6SM SCT050 BKN080
     FM250400 VRB04KT P6SM SCT045 SCT080 SCT120=



000
FTUS45 KREV 241132
TAFRNO
TAF
KRNO 241132Z 2412/2512 VRB03KT P6SM SCT050 BKN080
     FM241900 34008KT P6SM SCT050 BKN090 BKN120
     FM242200 33009G16KT P6SM SCT050 BKN080
     FM250400 VRB04KT P6SM SCT045 SCT080 SCT120=



000
FTUS45 KREV 241132
TAFRNO
TAF
KRNO 241132Z 2412/2512 VRB03KT P6SM SCT050 BKN080
     FM241900 34008KT P6SM SCT050 BKN090 BKN120
     FM242200 33009G16KT P6SM SCT050 BKN080
     FM250400 VRB04KT P6SM SCT045 SCT080 SCT120=



000
FTUS45 KREV 240521
TAFRNO
TAF
KRNO 240521Z 2406/2506 VRB03KT P6SM SCT050 BKN080
     FM241900 34008KT P6SM SCT050 BKN090 BKN120
     FM242200 33009G16KT P6SM VCSH SCT050 BKN080 BKN120
     FM250400 VRB04KT P6SM SCT045 SCT080 BKN120=



000
FTUS45 KREV 240521
TAFRNO
TAF
KRNO 240521Z 2406/2506 VRB03KT P6SM SCT050 BKN080
     FM241900 34008KT P6SM SCT050 BKN090 BKN120
     FM242200 33009G16KT P6SM VCSH SCT050 BKN080 BKN120
     FM250400 VRB04KT P6SM SCT045 SCT080 BKN120=



000
FTUS45 KREV 232320
TAFRNO
TAF
KRNO 232320Z 2400/2424 26008KT P6SM VCSH SCT020 BKN040
     FM240400 VRB03KT P6SM SCT050 BKN090
     FM241900 34008G14KT P6SM VCSH SCT060 BKN090 BKN120=



000
FTUS45 KREV 232320
TAFRNO
TAF
KRNO 232320Z 2400/2424 26008KT P6SM VCSH SCT020 BKN040
     FM240400 VRB03KT P6SM SCT050 BKN090
     FM241900 34008G14KT P6SM VCSH SCT060 BKN090 BKN120=



000
FTUS45 KREV 231725
TAFRNO
TAF
KRNO 231725Z 2318/2418 30006KT P6SM VCSH SCT025 BKN045
      TEMPO 2318/2321 6SM -SHRA BKN025
     FM232100 31011KT P6SM VCSH SCT030 BKN045
     FM240400 VRB03KT P6SM SCT050 BKN090=



000
FTUS45 KREV 231725
TAFRNO
TAF
KRNO 231725Z 2318/2418 30006KT P6SM VCSH SCT025 BKN045
      TEMPO 2318/2321 6SM -SHRA BKN025
     FM232100 31011KT P6SM VCSH SCT030 BKN045
     FM240400 VRB03KT P6SM SCT050 BKN090=



000
FTUS45 KREV 231725
TAFRNO
TAF
KRNO 231725Z 2318/2418 30006KT P6SM VCSH SCT025 BKN045
      TEMPO 2318/2321 6SM -SHRA BKN025
     FM232100 31011KT P6SM VCSH SCT030 BKN045
     FM240400 VRB03KT P6SM SCT050 BKN090=



000
FTUS45 KREV 231725
TAFRNO
TAF
KRNO 231725Z 2318/2418 30006KT P6SM VCSH SCT025 BKN045
      TEMPO 2318/2321 6SM -SHRA BKN025
     FM232100 31011KT P6SM VCSH SCT030 BKN045
     FM240400 VRB03KT P6SM SCT050 BKN090=



000
FTUS45 KREV 231126
TAFRNO
TAF
KRNO 231126Z 2312/2412 VRB04KT P6SM VCSH SCT030 BKN045
      TEMPO 2313/2316 -SHRA SCT015 BKN025
     FM231700 33006KT 6SM RA SCT015 OVC025
     FM232100 31011KT P6SM VCSH SCT030 BKN045
     FM240400 VRB03KT P6SM SCT050 BKN090=



000
FTUS45 KREV 231126
TAFRNO
TAF
KRNO 231126Z 2312/2412 VRB04KT P6SM VCSH SCT030 BKN045
      TEMPO 2313/2316 -SHRA SCT015 BKN025
     FM231700 33006KT 6SM RA SCT015 OVC025
     FM232100 31011KT P6SM VCSH SCT030 BKN045
     FM240400 VRB03KT P6SM SCT050 BKN090=



000
FTUS45 KREV 230526
TAFRNO
TAF
KRNO 230526Z 2306/2406 VRB04KT P6SM VCSH SCT025 BKN050
      TEMPO 2306/2307 6SM SHRA SCT015 BKN040
     FM231000 VRB04KT P6SM SCT030 BKN070
     FM232000 31011KT P6SM VCSH BKN050 BKN090
     FM240400 33008KT P6SM SCT050 BKN090=



000
FTUS45 KREV 230526
TAFRNO
TAF
KRNO 230526Z 2306/2406 VRB04KT P6SM VCSH SCT025 BKN050
      TEMPO 2306/2307 6SM SHRA SCT015 BKN040
     FM231000 VRB04KT P6SM SCT030 BKN070
     FM232000 31011KT P6SM VCSH BKN050 BKN090
     FM240400 33008KT P6SM SCT050 BKN090=



000
FTUS45 KREV 230526
TAFRNO
TAF
KRNO 230526Z 2306/2406 VRB04KT P6SM VCSH SCT025 BKN050
      TEMPO 2306/2307 6SM SHRA SCT015 BKN040
     FM231000 VRB04KT P6SM SCT030 BKN070
     FM232000 31011KT P6SM VCSH BKN050 BKN090
     FM240400 33008KT P6SM SCT050 BKN090=



000
FTUS45 KREV 222320
TAFRNO
TAF
KRNO 222320Z 2300/2324 30008KT P6SM VCSH SCT050 BKN100
     FM230400 VRB03KT P6SM SCT030 BKN060
     FM232000 30008KT P6SM VCSH BKN060 OVC100=



000
FTUS45 KREV 222320
TAFRNO
TAF
KRNO 222320Z 2300/2324 30008KT P6SM VCSH SCT050 BKN100
     FM230400 VRB03KT P6SM SCT030 BKN060
     FM232000 30008KT P6SM VCSH BKN060 OVC100=



000
FTUS45 KREV 222320
TAFRNO
TAF
KRNO 222320Z 2300/2324 30008KT P6SM VCSH SCT050 BKN100
     FM230400 VRB03KT P6SM SCT030 BKN060
     FM232000 30008KT P6SM VCSH BKN060 OVC100=



000
FTUS45 KREV 222320
TAFRNO
TAF
KRNO 222320Z 2300/2324 30008KT P6SM VCSH SCT050 BKN100
     FM230400 VRB03KT P6SM SCT030 BKN060
     FM232000 30008KT P6SM VCSH BKN060 OVC100=



000
FTUS45 KREV 221720
TAFRNO
TAF
KRNO 221720Z 2218/2318 VRB04KT P6SM VCSH SCT015 BKN040
     FM221900 33008G16KT P6SM VCSH BKN040 OVC060
     FM230400 VRB03KT P6SM SCT030 BKN060=



000
FTUS45 KREV 221720
TAFRNO
TAF
KRNO 221720Z 2218/2318 VRB04KT P6SM VCSH SCT015 BKN040
     FM221900 33008G16KT P6SM VCSH BKN040 OVC060
     FM230400 VRB03KT P6SM SCT030 BKN060=



000
FTUS45 KREV 221720
TAFRNO
TAF
KRNO 221720Z 2218/2318 VRB04KT P6SM VCSH SCT015 BKN040
     FM221900 33008G16KT P6SM VCSH BKN040 OVC060
     FM230400 VRB03KT P6SM SCT030 BKN060=



000
FTUS45 KREV 221720
TAFRNO
TAF
KRNO 221720Z 2218/2318 VRB04KT P6SM VCSH SCT015 BKN040
     FM221900 33008G16KT P6SM VCSH BKN040 OVC060
     FM230400 VRB03KT P6SM SCT030 BKN060=



000
FTUS45 KREV 221120
TAFRNO
TAF
KRNO 221120Z 2212/2312 VRB04KT P6SM VCSH SCT025 BKN050
     FM221900 33008G16KT P6SM VCSH BKN050 OVC090
     FM230400 VRB03KT P6SM SCT030 BKN060=



000
FTUS45 KREV 221120
TAFRNO
TAF
KRNO 221120Z 2212/2312 VRB04KT P6SM VCSH SCT025 BKN050
     FM221900 33008G16KT P6SM VCSH BKN050 OVC090
     FM230400 VRB03KT P6SM SCT030 BKN060=



000
FTUS45 KREV 221120
TAFRNO
TAF
KRNO 221120Z 2212/2312 VRB04KT P6SM VCSH SCT025 BKN050
     FM221900 33008G16KT P6SM VCSH BKN050 OVC090
     FM230400 VRB03KT P6SM SCT030 BKN060=



000
FTUS45 KREV 221120
TAFRNO
TAF
KRNO 221120Z 2212/2312 VRB04KT P6SM VCSH SCT025 BKN050
     FM221900 33008G16KT P6SM VCSH BKN050 OVC090
     FM230400 VRB03KT P6SM SCT030 BKN060=



    US Dept of Commerce
    National Oceanic and Atmospheric Administration
    National Weather Service
    1325 East West Highway
    Silver Spring, MD 20910
    Page Author: NWS Internet Services Team
Disclaimer
Information Quality
Credits
Glossary
Privacy Policy
Freedom of Information Act (FOIA)
About Us
Career Opportunities